Houghton County Memorial Airport
KCMX : rendu visible

Aérodrome :











RETROUVEZ-NOUS SUR...

 
LOGIN :

S'inscrire | Disclaimer

   EN    FR    IT 

 









Légende :    VFR   VFR Marginal   IFR   IFR Intensif   IFR Très Intensif
Visi : 
Plafond : 
>= 8 km
>= 3000ft
5 à 8 km
1000 à 3000 ft
1500m à 5 km
500 à 1000 ft
800 à 1500m
200 à 500 ft
< 800m
< 200 ft
Symboles :   Orages  Brouillard  Fortes neiges  Fortes précipitations  Vent > 20 kt






- Altitude de l'aérodrome : 1095 ft
- Code IATA : CMX


KCMX - Houghton County Memorial

DERNIER METAR :
  • 151525Z AUTO 31006KT 1 3/4SM -SN BKN021 OVC028 M10/M14 A2997 RMK AO2 SNE07B21 P0000 T11001139

METARs EXPIRÉS :
  • 151510Z AUTO 31005KT 5SM HZ SCT014 SCT021 OVC028 M11/M14 A2997 RMK AO2 SNE07 P0000 T11111144
  • 151500Z AUTO 32005KT 3SM -SN BKN014 BKN020 OVC031 M11/M14 A2996 RMK AO2 P0000 T11111144
  • 151453Z AUTO 34006KT 1 1/2SM -SN BKN018 OVC031 M11/M14 A2995 RMK AO2 SLP166 P0000 60000 T11061139 51007
  • 151438Z AUTO 32006KT 3/4SM -SN OVC020 M11/M13 A2996 RMK AO2 P0000 T11061133
  • 151409Z AUTO 31009KT 1 3/4SM -SN FEW012 OVC020 M11/M13 A2995 RMK AO2 P0000 T11061133
  • 151404Z AUTO 31007KT 3SM -SN FEW012 BKN020 OVC026 M11/M13 A2994 RMK AO2 P0000 T11061133
  • 151339Z AUTO 33008KT 2 1/2SM -SN BKN022 OVC026 M11/M14 A2994 RMK AO2 P0000 T11061139
  • 151330Z AUTO 32008KT 1 1/2SM -SN FEW012 OVC022 M11/M14 A2994 RMK AO2 P0000 T11061139
  • 151253Z AUTO 31007KT 2 1/2SM -SN SCT015 BKN024 OVC031 M11/M13 A2993 RMK AO2 SLP158 P0000 T11061133
  • 151238Z AUTO 31009KT 1 3/4SM -SN FEW015 BKN021 OVC029 M10/M13 A2993 RMK AO2 P0000 T11001133
  • 151230Z AUTO 30008KT 5SM -SN BKN023 OVC029 M10/M13 A2993 RMK AO2 P0000 T11001133

TAF KCMX
Valide du 15 à 12h jusqu'au 16 à 12h UTC


151123Z 1512/1612 32008KT 2SM -SHSN OVC014
FM151900 27011KT 6SM -SHSN BKN018
FM160200 23009KT P6SM VCSH BKN020



MET'MAP, la Météo Aéronautique d'un coup d'oeil ! - Copyright ORBIFLY Décembre 2007 - Disclaimer

ORBIFLY MET'MAP TEAM :

Programmation & Développement : Alexandra Zaïnal
Sur une idée originale de : Baudouin d'Aumeries
Assistance à la programmation : Marc-Olivier Méhu
Soutien technique & logistique : Manuel Goepfert

Contact : metmap@orbifly.com




SOURCES & CREDITS :

   NOAA       Earth
Advisory